Time;durP1;ratioP1;P1;durP2;ratioP2;P2;SDS_P1;SDS_P2;PMS_P1;PMS_P2;Temp;Humidity;BMP_temperature;BMP_pressure;BME280_temperature;BME280_humidity;BME280_pressure;Samples;Min_cycle;Max_cycle;Signal;HPM_P1;HPM_P2
2022/08/08 00:00:01;;;;;;;9.95;5.10;;;16.50;99.90;;;;;;3060252;19;20499;-69
2022/08/08 00:01:15;;;;;;;9.05;5.50;;;16.60;99.90;;;;;;3059897;19;20031;-69
2022/08/08 00:02:27;;;;;;;10.95;5.07;;;16.50;99.90;;;;;;3059917;19;20011;-69
2022/08/08 00:03:40;;;;;;;7.75;5.00;;;16.60;99.90;;;;;;3060150;19;20062;-70
2022/08/08 00:04:47;;;;;;;11.65;5.45;;;16.50;99.90;;;;;;3059911;19;20043;-69
2022/08/08 00:05:56;;;;;;;7.55;5.32;;;16.50;99.90;;;;;;3060179;19;20076;-69
2022/08/08 00:07:09;;;;;;;8.48;5.43;;;16.50;99.90;;;;;;3059092;19;20007;-69
2022/08/08 00:08:20;;;;;;;8.07;5.28;;;16.40;99.90;;;;;;3059795;19;19998;-69
2022/08/08 00:09:32;;;;;;;9.10;5.60;;;16.40;99.90;;;;;;3060318;19;20011;-69
2022/08/08 00:10:47;;;;;;;8.63;5.90;;;16.40;99.90;;;;;;3059747;19;20018;-69
2022/08/08 00:11:57;;;;;;;6.95;5.15;;;16.20;99.90;;;;;;3058775;19;20353;-69
2022/08/08 00:13:11;;;;;;;7.15;4.82;;;16.10;99.90;;;;;;3058857;19;20021;-69
2022/08/08 00:14:24;;;;;;;8.75;5.43;;;16.40;99.90;;;;;;3060009;19;20470;-69
2022/08/08 00:15:37;;;;;;;10.52;5.57;;;16.30;99.90;;;;;;3059630;19;20011;-69
2022/08/08 00:16:49;;;;;;;9.95;5.68;;;16.10;99.90;;;;;;3059870;19;20003;-70
2022/08/08 00:17:57;;;;;;;8.75;6.15;;;16.20;99.90;;;;;;3060236;19;20007;-70
2022/08/08 00:19:13;;;;;;;10.55;6.20;;;16.20;99.90;;;;;;3059627;19;20354;-70
2022/08/08 00:20:20;;;;;;;8.95;5.82;;;16.20;99.90;;;;;;3059971;19;20010;-70
2022/08/08 00:21:25;;;;;;;13.20;6.10;;;16.20;99.90;;;;;;3059538;19;20010;-69
2022/08/08 00:22:38;;;;;;;6.68;5.75;;;16.00;99.90;;;;;;3059933;19;20013;-71
2022/08/08 00:23:44;;;;;;;9.52;5.70;;;16.10;99.90;;;;;;3059665;19;20031;-70
2022/08/08 00:24:52;;;;;;;7.93;5.80;;;16.30;99.90;;;;;;3059752;19;20025;-70
2022/08/08 00:25:57;;;;;;;9.82;6.05;;;16.10;99.90;;;;;;3059554;19;20038;-70
2022/08/08 00:27:07;;;;;;;9.48;6.03;;;16.10;99.90;;;;;;3059652;19;20015;-70
2022/08/08 00:28:12;;;;;;;9.25;6.20;;;16.10;99.90;;;;;;3059509;19;20092;-70
2022/08/08 00:29:19;;;;;;;7.05;5.80;;;16.00;99.90;;;;;;3059742;19;20010;-70
2022/08/08 00:30:23;;;;;;;10.60;6.28;;;16.10;99.90;;;;;;3059847;19;19998;-70
2022/08/08 00:31:38;;;;;;;8.23;6.32;;;16.10;99.90;;;;;;3059408;19;20015;-70
2022/08/08 00:32:44;;;;;;;9.55;6.15;;;16.10;99.90;;;;;;3059171;19;20007;-70
2022/08/08 00:35:09;;;;;;;7.05;5.72;;;16.10;99.90;;;;;;3059636;19;20023;-70
2022/08/08 00:35:31;;;;;;;10.52;6.50;;;16.10;99.90;;;;;;3059481;19;20006;-70
2022/08/08 00:36:42;;;;;;;11.95;6.65;;;16.10;99.90;;;;;;3059440;19;20010;-70
2022/08/08 00:38:00;;;;;;;8.02;5.97;;;16.00;99.90;;;;;;3059330;19;20039;-70
2022/08/08 00:39:10;;;;;;;10.05;5.70;;;16.10;99.90;;;;;;3059697;19;20007;-70
2022/08/08 00:40:47;;;;;;;10.57;5.50;;;16.10;99.90;;;;;;3059262;19;20031;-70
2022/08/08 00:42:21;;;;;;;9.35;5.88;;;16.10;99.90;;;;;;3059560;19;20011;-70
2022/08/08 00:43:44;;;;;;;10.15;6.35;;;16.00;99.90;;;;;;3059433;19;20562;-70
2022/08/08 00:45:28;;;;;;;9.52;6.28;;;16.20;99.90;;;;;;3058214;19;20035;-71
2022/08/08 00:47:32;;;;;;;9.38;6.40;;;15.80;99.90;;;;;;3059198;19;20359;-70
2022/08/08 00:48:50;;;;;;;;;;;16.10;99.90;;;;;;3059952;19;20007;-70
2022/08/08 00:50:20;;;;;;;8.02;6.15;;;15.90;99.90;;;;;;3059298;19;20273;-70
2022/08/08 00:51:58;;;;;;;7.88;5.95;;;15.90;99.90;;;;;;3059275;19;20585;-70
2022/08/08 00:53:13;;;;;;;14.23;6.55;;;16.00;99.90;;;;;;3058841;19;20020;-70
2022/08/08 00:54:46;;;;;;;9.43;6.28;;;16.10;99.90;;;;;;3059255;19;20057;-70
2022/08/08 00:56:24;;;;;;;9.25;6.07;;;16.00;99.90;;;;;;3059257;19;20486;-70
2022/08/08 00:58:12;;;;;;;10.60;6.10;;;15.90;99.90;;;;;;3059224;19;20042;-70
2022/08/08 00:59:48;;;;;;;9.80;5.70;;;16.00;99.90;;;;;;3057746;19;20006;-70
2022/08/08 01:01:03;;;;;;;9.25;5.80;;;16.10;99.90;;;;;;3058120;19;20017;-70
2022/08/08 01:02:33;;;;;;;9.35;5.75;;;16.00;99.90;;;;;;3059261;19;20014;-70
2022/08/08 01:04:09;;;;;;;9.50;5.70;;;16.70;99.90;;;;;;3059088;19;20010;-70
2022/08/08 01:05:40;;;;;;;11.40;5.97;;;16.10;99.90;;;;;;3059228;19;20515;-70
2022/08/08 01:07:28;;;;;;;8.98;5.40;;;16.00;99.90;;;;;;3058315;19;20492;-70
2022/08/08 01:09:12;;;;;;;8.65;5.72;;;16.10;99.90;;;;;;3059053;19;20006;-70
2022/08/08 01:10:59;;;;;;;6.95;5.05;;;16.00;99.90;;;;;;3059190;19;19999;-70
2022/08/08 01:12:45;;;;;;;8.55;5.43;;;16.10;99.90;;;;;;3058109;19;20010;-69
2022/08/08 01:14:11;;;;;;;9.85;5.07;;;16.10;99.90;;;;;;3058957;19;20018;-70
2022/08/08 01:15:51;;;;;;;6.82;5.13;;;15.90;99.90;;;;;;3058977;19;20348;-70
2022/08/08 01:17:34;;;;;;;13.50;5.70;;;15.90;99.90;;;;;;3059014;19;20006;-70
2022/08/08 01:19:05;;;;;;;7.38;5.10;;;16.10;99.90;;;;;;3059096;19;20021;-70
2022/08/08 01:20:37;;;;;;;7.88;5.10;;;15.90;99.90;;;;;;3057045;19;20054;-70
2022/08/08 01:22:05;;;;;;;8.10;5.10;;;15.80;99.90;;;;;;3058695;19;20010;-70
2022/08/08 01:23:45;;;;;;;7.50;5.18;;;15.90;99.90;;;;;;3059019;19;20015;-70
2022/08/08 01:25:26;;;;;;;8.25;4.95;;;16.00;99.90;;;;;;3059055;19;20356;-70
2022/08/08 01:27:02;;;;;;;8.43;5.88;;;16.00;99.90;;;;;;3058899;19;20029;-70
2022/08/08 01:28:19;;;;;;;6.93;4.90;;;15.80;99.90;;;;;;3058721;19;20015;-70
2022/08/08 01:29:59;;;;;;;8.55;5.43;;;15.90;99.90;;;;;;3058892;19;20349;-70
2022/08/08 01:31:30;;;;;;;10.45;5.75;;;16.40;99.90;;;;;;3059095;19;20042;-70
2022/08/08 01:33:19;;;;;;;7.43;5.70;;;15.70;99.90;;;;;;3060408;19;20011;-70
2022/08/08 01:35:10;;;;;;;7.90;5.50;;;15.90;99.90;;;;;;3057605;19;20019;-70
2022/08/08 01:36:41;;;;;;;11.13;5.97;;;16.00;99.90;;;;;;3057001;19;20014;-70
2022/08/08 01:38:14;;;;;;;8.10;5.55;;;15.60;99.90;;;;;;3056061;19;20011;-70
2022/08/08 01:39:49;;;;;;;10.75;5.75;;;15.80;99.90;;;;;;3057411;19;20365;-70
2022/08/08 01:40:59;;;;;;;9.48;5.88;;;15.80;99.90;;;;;;3058558;19;20014;-70
2022/08/08 01:42:12;;;;;;;8.52;5.95;;;15.80;99.90;;;;;;3058467;19;20018;-70
2022/08/08 01:43:31;;;;;;;8.20;5.55;;;15.60;99.90;;;;;;3058648;19;20016;-70
2022/08/08 01:45:02;;;;;;;7.90;5.88;;;15.50;99.90;;;;;;3058523;19;20021;-70
2022/08/08 01:46:23;;;;;;;9.65;6.40;;;15.90;99.90;;;;;;3058566;19;20010;-70
2022/08/08 01:47:43;;;;;;;10.00;6.20;;;16.10;99.90;;;;;;3058791;19;20041;-70
2022/08/08 01:48:57;;;;;;;9.05;5.65;;;15.50;99.90;;;;;;3058310;19;20015;-70
2022/08/08 01:50:14;;;;;;;11.43;5.85;;;15.80;99.90;;;;;;3058588;19;20583;-70
2022/08/08 01:51:34;;;;;;;9.13;5.85;;;15.60;99.90;;;;;;3058448;19;20003;-70
2022/08/08 01:52:47;;;;;;;8.95;6.03;;;16.90;99.90;;;;;;3058680;19;20107;-70
2022/08/08 01:53:55;;;;;;;12.45;6.00;;;15.60;99.90;;;;;;3058356;19;20006;-70
2022/08/08 01:55:15;;;;;;;9.63;6.32;;;15.60;99.90;;;;;;3057884;19;20010;-70
2022/08/08 01:56:25;;;;;;;9.45;5.78;;;15.60;99.90;;;;;;3058429;19;20539;-70
2022/08/08 01:57:35;;;;;;;10.75;5.90;;;15.70;99.90;;;;;;3058283;19;20015;-70
2022/08/08 01:58:46;;;;;;;10.68;5.82;;;15.70;99.90;;;;;;3058581;19;20002;-70
2022/08/08 02:00:10;;;;;;;10.02;6.07;;;15.50;99.90;;;;;;3057639;19;20011;-70
2022/08/08 02:01:23;;;;;;;9.30;5.85;;;15.70;99.90;;;;;;3058061;19;20011;-70
2022/08/08 02:02:36;;;;;;;9.32;5.43;;;15.70;99.90;;;;;;3058519;19;20495;-70
2022/08/08 02:03:55;;;;;;;11.77;5.90;;;15.70;99.90;;;;;;3058488;19;20006;-70
2022/08/08 02:05:09;;;;;;;8.95;5.40;;;15.50;99.90;;;;;;3058250;19;20021;-70
2022/08/08 02:06:22;;;;;;;10.23;5.63;;;15.70;99.90;;;;;;3057982;19;20504;-70
2022/08/08 02:07:30;;;;;;;10.57;5.82;;;15.60;99.90;;;;;;3058155;19;20362;-70
2022/08/08 02:08:46;;;;;;;10.05;5.63;;;15.50;99.90;;;;;;3058458;19;20027;-70
2022/08/08 02:10:02;;;;;;;9.55;5.35;;;15.30;99.90;;;;;;3058113;19;20028;-70
2022/08/08 02:11:16;;;;;;;7.13;5.30;;;15.70;99.90;;;;;;3058059;19;20019;-70
2022/08/08 02:12:23;;;;;;;8.02;5.22;;;15.60;99.90;;;;;;3058162;19;20021;-70
2022/08/08 02:13:33;;;;;;;7.68;5.25;;;15.50;99.90;;;;;;3057980;19;20007;-70
2022/08/08 02:14:40;;;;;;;8.35;5.22;;;17.00;99.90;;;;;;3058159;19;20014;-70
2022/08/08 02:15:49;;;;;;;8.27;5.35;;;15.50;99.90;;;;;;3057936;19;20013;-70
2022/08/08 02:16:57;;;;;;;9.35;5.63;;;15.80;99.90;;;;;;3058421;19;20007;-70
2022/08/08 02:18:09;;;;;;;8.85;5.63;;;15.40;99.90;;;;;;3058095;19;20018;-69
2022/08/08 02:19:21;;;;;;;8.65;4.68;;;15.40;99.90;;;;;;3058031;19;20021;-70
2022/08/08 02:20:31;;;;;;;8.73;4.78;;;15.60;99.90;;;;;;3057951;19;20017;-70
2022/08/08 02:23:09;;;;;;;6.78;4.97;;;15.10;99.90;;;;;;3058194;19;20385;-71
2022/08/08 02:24:17;;;;;;;8.10;5.20;;;15.60;99.90;;;;;;3058137;19;20018;-71
2022/08/08 02:25:26;;;;;;;7.75;4.95;;;15.40;99.90;;;;;;3058038;19;20009;-70
2022/08/08 02:26:32;;;;;;;7.70;5.05;;;15.20;99.90;;;;;;3057969;19;20011;-70
2022/08/08 02:27:42;;;;;;;7.80;5.05;;;15.30;99.90;;;;;;3058039;19;20010;-70
2022/08/08 02:29:05;;;;;;;7.65;4.80;;;15.20;99.90;;;;;;3058247;19;20015;-70
2022/08/08 02:30:13;;;;;;;10.38;5.07;;;15.60;99.90;;;;;;3057983;19;20472;-70
2022/08/08 02:31:36;;;;;;;8.27;5.13;;;15.20;99.90;;;;;;3058011;19;20010;-70
2022/08/08 02:33:14;;;;;;;9.65;4.72;;;15.20;99.90;;;;;;3058104;19;20007;-70
2022/08/08 02:34:19;;;;;;;6.07;4.75;;;15.30;99.90;;;;;;3056785;19;20574;-70
2022/08/08 02:35:47;;;;;;;7.88;4.80;;;15.10;99.90;;;;;;3058149;19;20010;-70
2022/08/08 02:36:59;;;;;;;8.63;5.00;;;15.50;99.90;;;;;;3057897;19;20018;-70
2022/08/08 02:38:30;;;;;;;7.93;5.15;;;15.30;99.90;;;;;;3058038;19;20010;-70
2022/08/08 02:39:59;;;;;;;7.45;4.72;;;15.00;99.90;;;;;;3058230;19;20027;-70
2022/08/08 02:41:39;;;;;;;6.68;4.88;;;15.10;99.90;;;;;;3057639;19;20025;-70
2022/08/08 02:43:15;;;;;;;8.43;4.93;;;15.10;99.90;;;;;;3057941;19;20023;-70
2022/08/08 02:44:47;;;;;;;7.88;5.20;;;15.10;99.90;;;;;;3057996;19;20011;-69
2022/08/08 02:46:22;;;;;;;7.53;5.05;;;15.10;99.90;;;;;;3057918;19;20006;-70
2022/08/08 02:47:53;;;;;;;10.63;5.28;;;14.90;99.90;;;;;;3057333;19;20482;-70
2022/08/08 02:49:33;;;;;;;12.35;5.10;;;15.10;99.90;;;;;;3058027;19;20021;-70
2022/08/08 02:51:22;;;;;;;7.18;5.45;;;14.90;99.90;;;;;;3060988;19;20011;-70
2022/08/08 02:52:49;;;;;;;11.80;5.63;;;14.90;99.90;;;;;;3061032;19;20018;-70
2022/08/08 02:54:29;;;;;;;8.10;5.60;;;14.80;99.90;;;;;;3060257;19;20482;-71
2022/08/08 02:56:17;;;;;;;8.50;5.47;;;14.90;99.90;;;;;;3060359;19;20757;-70
2022/08/08 02:57:48;;;;;;;8.95;5.72;;;14.90;99.90;;;;;;3060628;19;20006;-70
2022/08/08 02:59:24;;;;;;;10.23;5.43;;;15.80;99.90;;;;;;3060892;19;20487;-70
2022/08/08 03:01:10;;;;;;;11.18;5.53;;;14.90;99.90;;;;;;3061070;19;20463;-70
2022/08/08 03:02:46;;;;;;;6.97;4.82;;;15.00;99.90;;;;;;3059683;19;20035;-70
2022/08/08 03:04:33;;;;;;;7.25;5.28;;;14.90;99.90;;;;;;3060641;19;20047;-70
2022/08/08 03:06:15;;;;;;;7.43;5.60;;;15.00;99.90;;;;;;3060796;19;20468;-70
2022/08/08 03:08:03;;;;;;;8.00;5.10;;;15.00;99.90;;;;;;3059242;19;20531;-70
2022/08/08 03:09:56;;;;;;;7.78;5.00;;;15.00;99.90;;;;;;3060757;19;20484;-70
2022/08/08 03:11:40;;;;;;;9.82;5.47;;;15.10;99.90;;;;;;3060550;19;20015;-70
2022/08/08 03:13:20;;;;;;;8.00;5.18;;;15.00;99.90;;;;;;3059137;19;20599;-70
2022/08/08 03:14:46;;;;;;;6.97;4.88;;;14.80;99.90;;;;;;3058847;19;20342;-70
2022/08/08 03:16:17;;;;;;;9.80;4.70;;;15.00;99.90;;;;;;3060103;19;20472;-70
2022/08/08 03:17:24;;;;;;;8.00;5.28;;;14.90;99.90;;;;;;3060783;19;20010;-70
2022/08/08 03:18:32;;;;;;;9.32;5.25;;;15.00;99.90;;;;;;3060502;19;20010;-70
2022/08/08 03:20:07;;;;;;;7.88;5.10;;;15.30;99.90;;;;;;3060784;19;20010;-70
2022/08/08 03:21:09;;;;;;;7.80;4.88;;;15.10;99.90;;;;;;3059771;19;20446;-70
2022/08/08 03:22:12;;;;;;;7.47;4.93;;;15.00;99.90;;;;;;3059820;19;20002;-70
2022/08/08 03:23:16;;;;;;;7.75;5.07;;;14.80;99.90;;;;;;3060781;19;20023;-70
2022/08/08 03:24:20;;;;;;;8.90;4.90;;;15.10;99.90;;;;;;3060594;19;20014;-70
2022/08/08 03:25:24;;;;;;;9.88;5.07;;;15.00;99.90;;;;;;3060263;19;20002;-70
2022/08/08 03:26:36;;;;;;;10.25;4.85;;;15.00;99.90;;;;;;3060310;19;20028;-70
2022/08/08 03:27:44;;;;;;;7.18;4.95;;;15.10;99.90;;;;;;3060500;19;20363;-69
2022/08/08 03:28:50;;;;;;;9.20;5.47;;;15.00;99.90;;;;;;3060323;19;20002;-70
2022/08/08 03:29:56;;;;;;;8.68;5.47;;;15.00;99.90;;;;;;3060447;19;20002;-70
2022/08/08 03:33:16;;;;;;;9.18;5.22;;;15.00;99.90;;;;;;3060403;19;20010;-70
2022/08/08 03:33:39;;;;;;;8.50;4.75;;;15.20;99.90;;;;;;3060072;19;20007;-70
2022/08/08 03:34:40;;;;;;;11.63;5.47;;;15.20;99.90;;;;;;3060311;19;20017;-70
2022/08/08 03:35:44;;;;;;;8.95;5.10;;;15.10;99.90;;;;;;3060312;19;20046;-70
2022/08/08 03:36:48;;;;;;;9.40;4.97;;;15.00;99.90;;;;;;3060399;19;20007;-70
2022/08/08 03:37:50;;;;;;;6.10;5.00;;;15.00;99.90;;;;;;3060305;19;20015;-70
2022/08/08 03:38:57;;;;;;;9.35;4.93;;;15.10;99.90;;;;;;3060222;19;20002;-70
2022/08/08 03:40:00;;;;;;;10.65;5.53;;;14.90;99.90;;;;;;3060328;19;20348;-70
2022/08/08 03:41:03;;;;;;;7.68;4.78;;;15.00;99.90;;;;;;3060139;19;20468;-70
2022/08/08 03:42:05;;;;;;;5.70;4.60;;;15.10;99.90;;;;;;3060396;19;20073;-70
2022/08/08 03:43:09;;;;;;;8.10;5.82;;;14.90;99.90;;;;;;3060076;19;20014;-70
2022/08/08 03:44:11;;;;;;;8.10;5.28;;;15.10;99.90;;;;;;3060302;19;20532;-70
2022/08/08 03:45:17;;;;;;;7.03;4.90;;;15.00;99.90;;;;;;3060289;19;20007;-70
2022/08/08 03:46:19;;;;;;;7.10;4.68;;;14.90;99.90;;;;;;3060448;19;20030;-70
2022/08/08 03:47:24;;;;;;;6.95;5.03;;;14.90;99.90;;;;;;3060063;19;20403;-70
2022/08/08 03:48:25;;;;;;;10.07;5.20;;;15.00;99.90;;;;;;3060172;19;20085;-70
2022/08/08 03:49:29;;;;;;;8.00;5.40;;;14.80;99.90;;;;;;3060064;19;20002;-71
2022/08/08 03:50:32;;;;;;;7.28;5.38;;;15.10;99.90;;;;;;3060102;19;20023;-70
2022/08/08 03:51:37;;;;;;;9.50;5.57;;;14.80;99.90;;;;;;3060064;19;20593;-70
2022/08/08 03:52:39;;;;;;;10.30;5.50;;;14.90;99.90;;;;;;3060345;19;20468;-70
2022/08/08 03:53:43;;;;;;;8.88;5.65;;;14.90;99.90;;;;;;3059721;19;20021;-71
2022/08/08 03:54:47;;;;;;;10.07;5.50;;;15.00;99.90;;;;;;3060140;19;20039;-70
2022/08/08 03:55:52;;;;;;;8.68;5.38;;;14.90;99.90;;;;;;3060139;19;20009;-70
2022/08/08 03:56:53;;;;;;;9.75;5.70;;;14.90;99.90;;;;;;3060196;19;20463;-70
2022/08/08 03:57:58;;;;;;;9.88;6.07;;;14.80;99.90;;;;;;3060117;19;20081;-70
2022/08/08 03:59:00;;;;;;;8.98;6.68;;;15.00;99.90;;;;;;3059943;19;20006;-70
2022/08/08 04:00:09;;;;;;;10.27;6.53;;;14.90;99.90;;;;;;3059927;19;20018;-70
2022/08/08 04:01:13;;;;;;;11.35;6.40;;;15.10;99.90;;;;;;3059598;19;20017;-70
2022/08/08 04:02:17;;;;;;;13.18;6.72;;;14.90;99.90;;;;;;3059923;19;20356;-70
2022/08/08 04:03:22;;;;;;;11.98;6.55;;;14.90;99.90;;;;;;3059877;19;20032;-70
2022/08/08 04:04:23;;;;;;;11.48;6.57;;;14.90;99.90;;;;;;3059849;19;20015;-70
2022/08/08 04:05:28;;;;;;;13.27;7.00;;;14.90;99.90;;;;;;3059901;19;20011;-70
2022/08/08 04:06:30;;;;;;;10.10;6.20;;;15.80;99.90;;;;;;3059302;19;20010;-70
2022/08/08 04:07:38;;;;;;;11.32;7.07;;;15.00;99.90;;;;;;3059973;19;20460;-70
2022/08/08 04:08:41;;;;;;;10.52;6.60;;;14.90;99.90;;;;;;3059878;19;20532;-68
2022/08/08 04:10:00;;;;;;;11.70;6.60;;;14.90;99.90;;;;;;3060038;19;20018;-70
2022/08/08 04:11:02;;;;;;;11.77;6.80;;;14.70;99.90;;;;;;3059354;19;20014;-70
2022/08/08 04:12:07;;;;;;;11.32;6.78;;;14.80;99.90;;;;;;3059805;19;20002;-70
2022/08/08 04:13:09;;;;;;;9.57;6.05;;;14.80;99.90;;;;;;3059718;19;20031;-70
2022/08/08 04:14:13;;;;;;;12.10;7.63;;;14.90;99.90;;;;;;3058308;19;20726;-69
2022/08/08 04:15:14;;;;;;;11.75;6.97;;;14.80;99.90;;;;;;3059176;19;20491;-70
2022/08/08 04:16:18;;;;;;;10.00;6.53;;;14.70;99.90;;;;;;3059975;19;20360;-70
2022/08/08 04:17:19;;;;;;;11.00;6.93;;;14.70;99.90;;;;;;3059770;19;20011;-71
2022/08/08 04:18:23;;;;;;;12.02;6.95;;;15.00;99.90;;;;;;3059883;19;20361;-70
2022/08/08 04:19:24;;;;;;;11.63;7.57;;;14.90;99.90;;;;;;3059605;19;20495;-70
2022/08/08 04:20:29;;;;;;;18.35;7.03;;;14.80;99.90;;;;;;3059994;19;20017;-70
2022/08/08 04:21:31;;;;;;;12.32;6.90;;;14.80;99.90;;;;;;3059868;19;20006;-71
2022/08/08 04:22:35;;;;;;;9.70;6.50;;;14.90;99.90;;;;;;3059552;19;20014;-71
2022/08/08 04:23:38;;;;;;;11.82;7.00;;;15.10;99.90;;;;;;3059866;19;20011;-70
2022/08/08 04:24:40;;;;;;;13.63;7.50;;;14.90;99.90;;;;;;3059587;19;20007;-70
2022/08/08 04:25:46;;;;;;;13.35;6.85;;;14.90;99.90;;;;;;3059395;19;20010;-70
2022/08/08 04:26:48;;;;;;;12.00;6.63;;;15.00;99.90;;;;;;3059438;19;20007;-70
2022/08/08 04:27:52;;;;;;;10.00;6.28;;;14.90;99.90;;;;;;3059687;19;20040;-70
2022/08/08 04:28:53;;;;;;;9.18;6.22;;;15.00;99.90;;;;;;3059715;19;20017;-70
2022/08/08 04:29:57;;;;;;;9.38;6.10;;;15.20;99.90;;;;;;3059506;19;20082;-70
2022/08/08 04:30:58;;;;;;;10.95;6.15;;;15.00;99.90;;;;;;3059686;19;20014;-70
2022/08/08 04:32:02;;;;;;;9.63;6.03;;;15.10;99.90;;;;;;3060970;19;20105;-70
2022/08/08 04:33:06;;;;;;;11.32;6.45;;;15.20;99.90;;;;;;3059592;19;20360;-70
2022/08/08 04:34:07;;;;;;;12.13;6.45;;;15.10;99.90;;;;;;3059273;19;20035;-70
2022/08/08 04:35:12;;;;;;;10.10;6.22;;;15.30;99.90;;;;;;3059625;19;20003;-70
2022/08/08 04:36:13;;;;;;;9.82;6.00;;;13.90;99.90;;;;;;3059690;19;20006;-70
2022/08/08 04:37:17;;;;;;;9.98;6.35;;;15.10;99.90;;;;;;3059355;19;20536;-70
2022/08/08 04:38:21;;;;;;;8.85;6.35;;;15.30;99.90;;;;;;3059770;19;20006;-70
2022/08/08 04:39:23;;;;;;;12.50;5.95;;;15.30;99.90;;;;;;3059348;19;20368;-70
2022/08/08 04:40:27;;;;;;;11.35;6.38;;;15.20;99.90;;;;;;3059702;19;20007;-71
2022/08/08 04:41:31;;;;;;;11.55;7.18;;;15.30;99.90;;;;;;3059258;19;20081;-70
2022/08/08 04:42:35;;;;;;;10.75;6.90;;;15.30;99.90;;;;;;3059642;19;20013;-69
2022/08/08 04:43:39;;;;;;;9.63;6.38;;;15.30;99.90;;;;;;3059339;19;20009;-69
2022/08/08 04:44:40;;;;;;;11.80;6.00;;;15.30;99.90;;;;;;3059555;19;20023;-69
2022/08/08 04:45:44;;;;;;;12.60;7.28;;;15.40;99.90;;;;;;3059296;19;20053;-69
2022/08/08 04:46:45;;;;;;;11.38;6.95;;;15.30;99.90;;;;;;3059553;19;20010;-69
2022/08/08 04:47:49;;;;;;;11.23;6.80;;;15.40;99.90;;;;;;3059186;19;20513;-69
2022/08/08 04:48:50;;;;;;;10.98;6.57;;;15.60;99.90;;;;;;3059372;19;20509;-70
2022/08/08 04:49:54;;;;;;;12.13;6.68;;;15.40;99.90;;;;;;3059132;19;20031;-69
2022/08/08 04:50:55;;;;;;;12.65;7.35;;;15.40;99.90;;;;;;3059371;19;20015;-69
2022/08/08 04:52:00;;;;;;;12.10;6.35;;;15.30;99.90;;;;;;3059075;19;20373;-68
2022/08/08 04:53:02;;;;;;;14.52;7.20;;;15.40;99.90;;;;;;3059300;19;20014;-68
2022/08/08 04:54:06;;;;;;;14.13;6.82;;;15.20;99.90;;;;;;3059051;19;20023;-68
2022/08/08 04:55:08;;;;;;;11.43;7.32;;;15.50;99.90;;;;;;3058844;19;20039;-68
2022/08/08 04:56:12;;;;;;;11.48;6.25;;;15.40;99.90;;;;;;3059233;19;20009;-71
2022/08/08 04:57:16;;;;;;;13.38;7.00;;;16.00;99.90;;;;;;3059471;19;20015;-69
2022/08/08 04:58:20;;;;;;;10.20;6.57;;;15.30;99.90;;;;;;3059132;19;20027;-70
2022/08/08 04:59:21;;;;;;;13.43;6.90;;;15.40;99.90;;;;;;3059153;19;20009;-68
2022/08/08 05:00:25;;;;;;;12.20;7.20;;;15.40;99.90;;;;;;3058991;19;20040;-68
2022/08/08 05:01:27;;;;;;;14.27;7.03;;;15.30;99.90;;;;;;3059068;19;20035;-69
2022/08/08 05:02:31;;;;;;;13.13;6.95;;;15.30;99.90;;;;;;3059304;19;20069;-68
2022/08/08 05:03:32;;;;;;;9.55;6.60;;;15.10;99.90;;;;;;3059173;19;20014;-69
2022/08/08 05:04:36;;;;;;;13.05;6.63;;;15.20;99.90;;;;;;3058974;19;20330;-71
2022/08/08 05:05:37;;;;;;;12.90;7.22;;;15.30;99.90;;;;;;3059219;19;20006;-70
2022/08/08 05:06:41;;;;;;;12.68;6.88;;;15.20;99.90;;;;;;3058669;19;20018;-69
2022/08/08 05:07:43;;;;;;;11.63;6.60;;;15.40;99.90;;;;;;3059387;19;20010;-69
2022/08/08 05:08:48;;;;;;;11.57;7.22;;;13.40;99.90;;;;;;3059141;19;20095;-69
2022/08/08 05:09:49;;;;;;;10.25;6.43;;;15.40;99.90;;;;;;3059106;19;20007;-70
2022/08/08 05:10:53;;;;;;;13.30;6.68;;;15.40;99.90;;;;;;3058569;19;20032;-69
2022/08/08 05:11:55;;;;;;;12.60;6.55;;;15.20;99.90;;;;;;3058468;19;20023;-70
2022/08/08 05:13:01;;;;;;;11.75;6.72;;;15.20;99.90;;;;;;3057630;19;20024;-70
2022/08/08 05:14:03;;;;;;;12.43;7.00;;;15.20;99.90;;;;;;3059048;19;20002;-70
2022/08/08 05:15:07;;;;;;;16.17;6.53;;;15.50;99.90;;;;;;3058227;19;20028;-70
2022/08/08 05:16:09;;;;;;;15.02;7.10;;;15.40;99.90;;;;;;3058905;19;20021;-70
2022/08/08 05:17:13;;;;;;;;;;;15.30;99.90;;;;;;3059466;19;20010;-70
2022/08/08 05:18:14;;;;;;;10.27;6.38;;;15.50;99.90;;;;;;3059085;19;19922;-70
2022/08/08 05:19:18;;;;;;;11.20;6.90;;;15.60;99.90;;;;;;3058668;19;20018;-70
2022/08/08 05:20:22;;;;;;;9.60;6.03;;;15.30;99.90;;;;;;3058742;19;20701;-70
2022/08/08 05:21:24;;;;;;;11.73;6.43;;;15.50;99.90;;;;;;3058499;19;20408;-70
2022/08/08 05:22:29;;;;;;;11.05;6.68;;;15.60;99.90;;;;;;3058875;19;20010;-70
2022/08/08 05:23:30;;;;;;;12.20;6.78;;;15.60;99.90;;;;;;3058921;19;20011;-70
2022/08/08 05:24:34;;;;;;;9.82;6.03;;;15.50;99.90;;;;;;3058899;19;20048;-70
2022/08/08 05:25:35;;;;;;;11.27;6.20;;;15.70;99.90;;;;;;3058384;19;20105;-70
2022/08/08 05:26:45;;;;;;;9.20;6.35;;;15.50;99.90;;;;;;3058836;19;20366;-71
2022/08/08 05:27:48;;;;;;;10.68;6.10;;;15.60;99.90;;;;;;3058635;19;20014;-70
2022/08/08 05:28:52;;;;;;;11.00;6.30;;;15.60;99.90;;;;;;3059079;19;20018;-70
2022/08/08 05:29:56;;;;;;;10.68;6.13;;;15.80;99.90;;;;;;3058727;19;20110;-70
2022/08/08 05:30:57;;;;;;;11.52;6.18;;;15.70;99.90;;;;;;3058691;19;20019;-70
2022/08/08 05:32:01;;;;;;;13.57;6.05;;;15.80;99.90;;;;;;3060148;19;20013;-70
2022/08/08 05:33:03;;;;;;;11.45;5.80;;;15.70;99.90;;;;;;3058859;19;20018;-70
2022/08/08 05:34:08;;;;;;;10.25;6.18;;;15.60;99.90;;;;;;3058570;19;20039;-70
2022/08/08 05:35:12;;;;;;;10.30;5.75;;;15.60;99.90;;;;;;3058140;19;20006;-70
2022/08/08 05:36:18;;;;;;;8.68;5.88;;;15.60;99.90;;;;;;3057850;19;20006;-70
2022/08/08 05:37:23;;;;;;;11.88;5.80;;;15.60;99.90;;;;;;3057770;19;20006;-70
2022/08/08 05:38:30;;;;;;;10.88;5.93;;;15.60;99.90;;;;;;3058738;19;20019;-70
2022/08/08 05:39:31;;;;;;;12.98;6.38;;;15.70;99.90;;;;;;3058614;19;20022;-70
2022/08/08 05:40:36;;;;;;;12.20;6.28;;;15.50;99.90;;;;;;3058555;19;20398;-70
2022/08/08 05:41:40;;;;;;;9.93;5.70;;;15.80;99.90;;;;;;3058838;19;20031;-70
2022/08/08 05:42:45;;;;;;;11.02;5.75;;;15.80;99.90;;;;;;3058597;19;20032;-70
2022/08/08 05:43:47;;;;;;;10.15;5.75;;;15.60;99.90;;;;;;3058612;19;20015;-70
2022/08/08 05:44:54;;;;;;;11.20;6.25;;;15.70;99.90;;;;;;3058622;19;20039;-70
2022/08/08 05:45:58;;;;;;;8.95;5.50;;;15.80;99.90;;;;;;3058649;19;20007;-70
2022/08/08 05:47:03;;;;;;;7.20;4.65;;;15.70;99.90;;;;;;3058736;19;20010;-71
2022/08/08 05:48:05;;;;;;;10.85;5.78;;;15.80;99.90;;;;;;3058527;19;20031;-70
2022/08/08 05:49:09;;;;;;;11.75;5.25;;;15.80;99.90;;;;;;3058499;19;20014;-70
2022/08/08 05:50:13;;;;;;;13.95;5.28;;;15.80;99.90;;;;;;3058410;19;20031;-70
2022/08/08 05:51:18;;;;;;;9.25;5.22;;;15.90;99.90;;;;;;3057556;19;20010;-70
2022/08/08 05:52:19;;;;;;;10.75;5.50;;;15.80;99.90;;;;;;3057557;19;20614;-70
2022/08/08 05:53:24;;;;;;;13.10;5.13;;;15.70;99.90;;;;;;3058760;19;20013;-70
2022/08/08 05:54:26;;;;;;;12.85;5.57;;;15.80;99.90;;;;;;3058105;19;20476;-70
2022/08/08 05:55:33;;;;;;;8.80;5.05;;;15.80;99.90;;;;;;3058032;19;20010;-69
2022/08/08 05:56:37;;;;;;;10.75;5.07;;;15.80;99.90;;;;;;3058449;19;20010;-70
2022/08/08 05:57:42;;;;;;;9.15;5.15;;;16.00;99.90;;;;;;3058444;19;20010;-70
2022/08/08 05:58:45;;;;;;;10.07;5.30;;;15.90;99.90;;;;;;3058462;19;20476;-70
2022/08/08 05:59:54;;;;;;;10.98;5.30;;;16.00;99.90;;;;;;3058520;19;19998;-70
2022/08/08 06:00:57;;;;;;;11.80;5.70;;;16.10;99.90;;;;;;3058342;19;20031;-70
2022/08/08 06:02:01;;;;;;;9.32;5.07;;;15.90;99.90;;;;;;3058410;19;20002;-70
2022/08/08 06:03:10;;;;;;;9.02;5.05;;;15.80;99.90;;;;;;3058274;19;20035;-70
2022/08/08 06:04:14;;;;;;;10.52;5.43;;;16.00;99.90;;;;;;3058526;19;20006;-70
2022/08/08 06:05:20;;;;;;;12.98;5.75;;;15.90;99.90;;;;;;3058354;19;20013;-70
2022/08/08 06:06:27;;;;;;;8.45;5.55;;;16.00;99.90;;;;;;3058056;19;19998;-70
2022/08/08 06:07:31;;;;;;;10.55;5.93;;;16.10;99.90;;;;;;3058275;19;20031;-70
2022/08/08 06:08:39;;;;;;;9.63;6.35;;;16.10;99.90;;;;;;3058160;19;20023;-70
2022/08/08 06:09:40;;;;;;;9.77;6.32;;;16.10;99.90;;;;;;3058095;19;20462;-70
2022/08/08 06:10:45;;;;;;;;;;;16.30;99.90;;;;;;3059073;19;20017;-71
2022/08/08 06:11:49;;;;;;;10.25;5.28;;;16.20;99.90;;;;;;3057329;19;19915;-70
2022/08/08 06:12:50;;;;;;;13.20;6.05;;;16.10;99.90;;;;;;3058474;19;20472;-70
2022/08/08 06:13:55;;;;;;;9.60;5.85;;;16.30;99.90;;;;;;3058349;19;20046;-70
2022/08/08 06:15:00;;;;;;;8.80;5.43;;;16.20;99.90;;;;;;3057859;19;20015;-70
2022/08/08 06:16:04;;;;;;;14.40;5.68;;;16.40;99.90;;;;;;3058181;19;20444;-70
2022/08/08 06:17:08;;;;;;;10.32;5.57;;;16.30;99.90;;;;;;3058349;19;20812;-70
2022/08/08 06:18:12;;;;;;;11.45;5.75;;;16.30;99.90;;;;;;3058198;19;20716;-70
2022/08/08 06:19:15;;;;;;;10.75;6.30;;;16.50;99.90;;;;;;3057984;19;20015;-70